BBC Ganges — V2ER7 — position and weather

sailwx.info

Track history (hours):
 
Tides and Currents Weather Stations Pressure Air Temp Water Temp Dewpoint Dewpoint Depression Visibility Wind Speed Wind Dir Waves Ship Positions

BBC Ganges

Last reported at 2018-Aug-16 03:32 UTC. Time now 2018-Aug-19 23:12 UTC.
Position N 09°11' W 079°53'.

Length 143 m; draft 10.1 m.

Type: Cargo ship. MMSI: 305529000.

Date/timePositionNaut miles runAvg speedWind from/ knotsBaromVisibWave heightAir tempDewpointWater temp
2018-Aug-16 03:32N 09°11' W 079°53'010.2
2018-Aug-16 03:30N 09°11' W 079°53'5 9.1
2018-Aug-16 02:59N 09°15' W 079°55'1 1.9
2018-Aug-16 02:30N 09°16' W 079°55'0 0.5
2018-Aug-16 01:56N 09°17' W 079°55'0 0.6
2018-Aug-16 01:30N 09°17' W 079°55'0 0.8
2018-Aug-16 01:00N 09°17' W 079°55'1 2.8
2018-Aug-16 00:30N 09°19' W 079°55'3 5.5
2018-Aug-16 00:00N 09°21' W 079°55'0 0.6
2018-Aug-15 23:28N 09°22' W 079°55'0 0.0
2018-Aug-15 22:58N 09°22' W 079°55'0 0.0
2018-Aug-15 22:28N 09°22' W 079°55'0 0.0
2018-Aug-15 21:58N 09°22' W 079°55'0 0.0
2018-Aug-15 21:28N 09°22' W 079°55'0 0.0
2018-Aug-15 20:58N 09°22' W 079°55'0 0.0
2018-Aug-15 20:28N 09°22' W 079°55'0 0.0
2018-Aug-15 19:58N 09°22' W 079°55'0 0.1
2018-Aug-15 19:28N 09°22' W 079°55'0 0.0
2018-Aug-15 18:58N 09°22' W 079°55'0 0.1
2018-Aug-15 18:28N 09°22' W 079°55'0 0.0
2018-Aug-15 17:52N 09°22' W 079°55'0 0.1
2018-Aug-15 17:28N 09°22' W 079°55'0 0.1
2018-Aug-15 16:49N 09°22' W 079°55'0 0.0
2018-Aug-15 16:28N 09°22' W 079°55'0 0.0
2018-Aug-15 15:58N 09°22' W 079°55'0 0.0
2018-Aug-15 15:28N 09°22' W 079°55'0 0.0
2018-Aug-15 14:58N 09°22' W 079°55'0 0.0
2018-Aug-15 14:28N 09°22' W 079°55'0 0.0
2018-Aug-15 13:46N 09°22' W 079°55'0 0.1
2018-Aug-15 13:27N 09°22' W 079°55'15 6.9
2018-Aug-15 11:15N 09°36' W 079°51'24110.2
2018-Aug-14 11:34N 10°17' W 075°50'112.3
2018-Aug-14 11:29N 10°17' W 075°49'612.5
2018-Aug-14 11:00N 10°18' W 075°42'612.1
2018-Aug-14 10:30N 10°19' W 075°36'5 9.8
2018-Aug-14 10:00N 10°20' W 075°32'1 2.4
2018-Aug-14 09:30N 10°21' W 075°31'0 0.5
2018-Aug-14 08:58N 10°21' W 075°30'0 0.0
2018-Aug-14 08:28N 10°21' W 075°30'0 0.0
2018-Aug-14 07:58N 10°21' W 075°30'0 0.0
2018-Aug-14 07:28N 10°21' W 075°30'0 0.0
2018-Aug-14 06:58N 10°21' W 075°30'0 0.0
2018-Aug-14 06:28N 10°21' W 075°30'0 0.0
2018-Aug-14 05:58N 10°21' W 075°30'0 0.0
2018-Aug-14 05:28N 10°21' W 075°30'0 0.0
2018-Aug-14 04:58N 10°21' W 075°30'0 0.0
2018-Aug-14 04:28N 10°21' W 075°30'0 0.0
2018-Aug-14 03:58N 10°21' W 075°30'0 0.0
2018-Aug-14 03:25N 10°21' W 075°30'0 0.0
2018-Aug-14 02:58N 10°21' W 075°30'0 0.0
2018-Aug-14 02:28N 10°21' W 075°30'0 0.0
2018-Aug-14 01:58N 10°21' W 075°30'0 0.0
2018-Aug-14 01:28N 10°21' W 075°30'0 0.0
2018-Aug-14 00:58N 10°21' W 075°30'0 0.0
2018-Aug-14 00:28N 10°21' W 075°30'0 0.0
2018-Aug-13 23:58N 10°21' W 075°30'0 0.0
2018-Aug-13 23:28N 10°21' W 075°30'0 0.0
2018-Aug-13 22:58N 10°21' W 075°30'0 0.0
2018-Aug-13 22:28N 10°21' W 075°30'0 0.0
2018-Aug-13 21:58N 10°21' W 075°30'0 0.0
2018-Aug-13 21:28N 10°21' W 075°30'0 0.0
2018-Aug-13 20:58N 10°21' W 075°30'0 0.0
2018-Aug-13 20:28N 10°21' W 075°30'0 0.0
2018-Aug-13 19:58N 10°21' W 075°30'0 0.0
2018-Aug-13 19:28N 10°21' W 075°30'0 0.0
2018-Aug-13 18:58N 10°21' W 075°30'0 0.0
2018-Aug-13 18:28N 10°21' W 075°30'0 0.0
2018-Aug-13 17:58N 10°21' W 075°30'0 0.0
2018-Aug-13 17:28N 10°21' W 075°30'0 0.0
2018-Aug-13 16:58N 10°21' W 075°30'0 0.0
2018-Aug-13 16:28N 10°21' W 075°30'0 0.0
2018-Aug-13 15:58N 10°21' W 075°30'0 0.0
2018-Aug-13 15:28N 10°21' W 075°30'0 0.0
2018-Aug-13 14:58N 10°21' W 075°30'0 0.0
2018-Aug-13 14:28N 10°21' W 075°30'0 0.0
2018-Aug-13 13:58N 10°21' W 075°30'0 0.0
2018-Aug-13 13:28N 10°21' W 075°30'0 0.0
2018-Aug-13 12:58N 10°21' W 075°30'0 0.0
2018-Aug-13 12:28N 10°21' W 075°30'0 0.0
2018-Aug-13 11:58N 10°21' W 075°30'0 0.0
2018-Aug-13 11:28N 10°21' W 075°30'0 0.0
2018-Aug-13 10:58N 10°21' W 075°30'0 0.0
2018-Aug-13 10:28N 10°21' W 075°30'0 0.0
2018-Aug-13 09:58N 10°21' W 075°30'0 0.0
2018-Aug-13 09:28N 10°21' W 075°30'0 0.0
2018-Aug-13 08:52N 10°21' W 075°30'0 0.0
2018-Aug-13 08:28N 10°21' W 075°30'0 0.0
2018-Aug-13 07:58N 10°21' W 075°30'0 0.0
2018-Aug-13 07:28N 10°21' W 075°30'0 0.0
2018-Aug-13 06:58N 10°21' W 075°30'0 0.0
2018-Aug-13 06:28N 10°21' W 075°30'0 0.0
2018-Aug-13 05:58N 10°21' W 075°30'0 0.0
2018-Aug-13 05:28N 10°21' W 075°30'0 0.0
2018-Aug-13 04:58N 10°21' W 075°30'0 0.0
2018-Aug-13 04:28N 10°21' W 075°30'0 0.0
2018-Aug-13 03:58N 10°21' W 075°30'0 0.0
2018-Aug-13 03:28N 10°21' W 075°30'0 0.0
2018-Aug-13 02:58N 10°21' W 075°30'0 0.0
2018-Aug-13 02:28N 10°21' W 075°30'0 0.0
2018-Aug-13 01:58N 10°21' W 075°30'0 0.0
2018-Aug-13 01:22N 10°21' W 075°30'0 0.0
2018-Aug-13 00:58N 10°21' W 075°30'0 0.0
2018-Aug-13 00:28N 10°21' W 075°30'0 0.0
2018-Aug-12 23:58N 10°21' W 075°30'0 0.0
2018-Aug-12 23:28N 10°21' W 075°30'0 0.0
2018-Aug-12 22:58N 10°21' W 075°30'0 0.0
2018-Aug-12 22:28N 10°21' W 075°30'0 0.0
2018-Aug-12 21:58N 10°21' W 075°30'0 0.0
2018-Aug-12 21:28N 10°21' W 075°30'0 0.0
2018-Aug-12 20:58N 10°21' W 075°30'0 0.0
2018-Aug-12 20:28N 10°21' W 075°30'0 0.0
2018-Aug-12 19:58N 10°21' W 075°30'0 0.0
2018-Aug-12 19:28N 10°21' W 075°30'0 0.0
2018-Aug-12 18:58N 10°21' W 075°30'0 0.0
2018-Aug-12 18:28N 10°21' W 075°30'0 0.0
2018-Aug-12 17:58N 10°21' W 075°30'0 0.0
2018-Aug-12 17:28N 10°21' W 075°30'0 0.0
2018-Aug-12 16:58N 10°21' W 075°30'0 0.0
2018-Aug-12 16:28N 10°21' W 075°30'0 0.0
2018-Aug-12 15:58N 10°21' W 075°30'0 0.0
2018-Aug-12 15:28N 10°21' W 075°30'0 0.0
2018-Aug-12 14:58N 10°21' W 075°30'0 0.0
2018-Aug-12 14:28N 10°21' W 075°30'0 0.0
2018-Aug-12 13:58N 10°21' W 075°30'0 0.0
2018-Aug-12 13:28N 10°21' W 075°30'0 0.0
2018-Aug-12 12:58N 10°21' W 075°30'0 0.0
2018-Aug-12 12:28N 10°21' W 075°30'0 0.0
2018-Aug-12 11:58N 10°21' W 075°30'0 0.0
2018-Aug-12 11:28N 10°21' W 075°30'0 0.0
2018-Aug-12 10:58N 10°21' W 075°30'0 0.0
2018-Aug-12 10:28N 10°21' W 075°30'0 0.0
2018-Aug-12 09:58N 10°21' W 075°30'0 0.0
2018-Aug-12 09:28N 10°21' W 075°30'0 0.0
2018-Aug-12 08:58N 10°21' W 075°30'0 0.0
2018-Aug-12 08:28N 10°21' W 075°30'0 0.0
2018-Aug-12 07:58N 10°21' W 075°30'0 0.0
2018-Aug-12 07:28N 10°21' W 075°30'0 0.0
2018-Aug-12 06:58N 10°21' W 075°30'0 0.0
2018-Aug-12 06:25N 10°21' W 075°30'0 0.0
2018-Aug-12 05:58N 10°21' W 075°30'0 0.0
2018-Aug-12 05:28N 10°21' W 075°30'0 0.0
2018-Aug-12 04:58N 10°21' W 075°30'0 0.0
2018-Aug-12 04:28N 10°21' W 075°30'0 0.0
2018-Aug-12 03:58N 10°21' W 075°30'0 0.0
2018-Aug-12 03:28N 10°21' W 075°30'0 0.0
2018-Aug-12 02:58N 10°21' W 075°30'0 0.0
2018-Aug-12 02:25N 10°21' W 075°30'0 0.0
2018-Aug-12 01:58N 10°21' W 075°30'0 0.0
2018-Aug-12 01:28N 10°21' W 075°30'0 0.0
2018-Aug-12 00:58N 10°21' W 075°30'0 0.0
2018-Aug-12 00:28N 10°21' W 075°30'0 0.0
2018-Aug-11 23:58N 10°21' W 075°30'0 0.0
2018-Aug-11 23:28N 10°21' W 075°30'0 0.1
2018-Aug-11 23:00N 10°21' W 075°30'2 4.7
2018-Aug-11 22:30N 10°20' W 075°33'510.0
2018-Aug-11 22:00N 10°19' W 075°38'5 9.8
2018-Aug-11 21:28N 10°22' W 075°42'613.2
2018-Aug-11 21:00N 10°28' W 075°41'1213.9
2018-Aug-11 20:07N 10°39' W 075°36'  
2018-Aug-06 22:39N 32°44' W 079°50'214.5
2018-Aug-06 22:30N 32°45' W 079°52'4 8.0
2018-Aug-06 22:00N 32°48' W 079°56'0 0.0
2018-Aug-06 21:30N 32°48' W 079°56'0 0.0
2018-Aug-06 21:00N 32°48' W 079°56'0 0.0
2018-Aug-06 20:30N 32°48' W 079°56'0 0.0
2018-Aug-06 20:00N 32°48' W 079°56'0 0.0
2018-Aug-06 19:27N 32°48' W 079°56'0 0.0
2018-Aug-06 19:00N 32°48' W 079°56'0 0.0
2018-Aug-06 18:30N 32°48' W 079°56'0 0.0
2018-Aug-06 18:00N 32°48' W 079°56'0 0.0
2018-Aug-06 17:30N 32°48' W 079°56'0 0.0
2018-Aug-06 17:00N 32°48' W 079°56'0 0.0
2018-Aug-06 16:30N 32°48' W 079°56'0 0.0
2018-Aug-06 16:00N 32°48' W 079°56'0 0.0
2018-Aug-06 15:30N 32°48' W 079°56'0 0.0
2018-Aug-06 15:00N 32°48' W 079°56'0 0.0
2018-Aug-06 14:30N 32°48' W 079°56'0 0.0
2018-Aug-06 14:00N 32°48' W 079°56'0 0.0
2018-Aug-06 13:30N 32°48' W 079°56'0 0.0
2018-Aug-06 13:00N 32°48' W 079°56'0 0.0
2018-Aug-06 12:30N 32°48' W 079°56'0 0.0
2018-Aug-06 12:00N 32°48' W 079°56'0 0.0
2018-Aug-06 11:30N 32°48' W 079°56'0 0.0
2018-Aug-06 11:00N 32°48' W 079°56'0 0.0
2018-Aug-06 10:30N 32°48' W 079°56'0 0.0
2018-Aug-06 10:00N 32°48' W 079°56'0 0.0
2018-Aug-06 09:30N 32°48' W 079°56'0 0.0
2018-Aug-06 09:00N 32°48' W 079°56'0 0.0
2018-Aug-06 08:30N 32°48' W 079°56'0 0.0
2018-Aug-06 07:57N 32°48' W 079°56'0 0.0
2018-Aug-06 07:30N 32°48' W 079°56'0 0.0
2018-Aug-06 07:00N 32°48' W 079°56'0 0.0
2018-Aug-06 06:30N 32°48' W 079°56'0 0.0
2018-Aug-06 06:00N 32°48' W 079°56'0 0.0
2018-Aug-06 05:30N 32°48' W 079°56'0 0.0
2018-Aug-06 05:00N 32°48' W 079°56'0 0.0
2018-Aug-06 04:30N 32°48' W 079°56'0 0.0
2018-Aug-06 04:00N 32°48' W 079°56'  
Track history (hours):
 
Tides and Currents Weather Stations Pressure Air Temp Water Temp Dewpoint Dewpoint Depression Visibility Wind Speed Wind Dir Waves Ship Positions

BBC Ganges

Last reported at 2018-Aug-16 03:32 UTC. Time now 2018-Aug-19 23:12 UTC.
Position N 09°11' W 079°53'.

Length 143 m; draft 10.1 m.

Type: Cargo ship. MMSI: 305529000.

Date/timePositionNaut miles runAvg speedWind from/ knotsBaromVisibWave heightAir tempDewpointWater temp
2018-Aug-16 03:32N 09°11' W 079°53'010.2
2018-Aug-16 03:30N 09°11' W 079°53'5 9.1
2018-Aug-16 02:59N 09°15' W 079°55'1 1.9
2018-Aug-16 02:30N 09°16' W 079°55'0 0.5
2018-Aug-16 01:56N 09°17' W 079°55'0 0.6
2018-Aug-16 01:30N 09°17' W 079°55'0 0.8
2018-Aug-16 01:00N 09°17' W 079°55'1 2.8
2018-Aug-16 00:30N 09°19' W 079°55'3 5.5
2018-Aug-16 00:00N 09°21' W 079°55'0 0.6
2018-Aug-15 23:28N 09°22' W 079°55'0 0.0
2018-Aug-15 22:58N 09°22' W 079°55'0 0.0
2018-Aug-15 22:28N 09°22' W 079°55'0 0.0
2018-Aug-15 21:58N 09°22' W 079°55'0 0.0
2018-Aug-15 21:28N 09°22' W 079°55'0 0.0
2018-Aug-15 20:58N 09°22' W 079°55'0 0.0
2018-Aug-15 20:28N 09°22' W 079°55'0 0.0
2018-Aug-15 19:58N 09°22' W 079°55'0 0.1
2018-Aug-15 19:28N 09°22' W 079°55'0 0.0
2018-Aug-15 18:58N 09°22' W 079°55'0 0.1
2018-Aug-15 18:28N 09°22' W 079°55'0 0.0
2018-Aug-15 17:52N 09°22' W 079°55'0 0.1
2018-Aug-15 17:28N 09°22' W 079°55'0 0.1
2018-Aug-15 16:49N 09°22' W 079°55'0 0.0
2018-Aug-15 16:28N 09°22' W 079°55'0 0.0
2018-Aug-15 15:58N 09°22' W 079°55'0 0.0
2018-Aug-15 15:28N 09°22' W 079°55'0 0.0
2018-Aug-15 14:58N 09°22' W 079°55'0 0.0
2018-Aug-15 14:28N 09°22' W 079°55'0 0.0
2018-Aug-15 13:46N 09°22' W 079°55'0 0.1
2018-Aug-15 13:27N 09°22' W 079°55'15 6.9
2018-Aug-15 11:15N 09°36' W 079°51'24110.2
2018-Aug-14 11:34N 10°17' W 075°50'112.3
2018-Aug-14 11:29N 10°17' W 075°49'612.5
2018-Aug-14 11:00N 10°18' W 075°42'612.1
2018-Aug-14 10:30N 10°19' W 075°36'5 9.8
2018-Aug-14 10:00N 10°20' W 075°32'1 2.4
2018-Aug-14 09:30N 10°21' W 075°31'0 0.5
2018-Aug-14 08:58N 10°21' W 075°30'0 0.0
2018-Aug-14 08:28N 10°21' W 075°30'0 0.0
2018-Aug-14 07:58N 10°21' W 075°30'0 0.0
2018-Aug-14 07:28N 10°21' W 075°30'0 0.0
2018-Aug-14 06:58N 10°21' W 075°30'0 0.0
2018-Aug-14 06:28N 10°21' W 075°30'0 0.0
2018-Aug-14 05:58N 10°21' W 075°30'0 0.0
2018-Aug-14 05:28N 10°21' W 075°30'0 0.0
2018-Aug-14 04:58N 10°21' W 075°30'0 0.0
2018-Aug-14 04:28N 10°21' W 075°30'0 0.0
2018-Aug-14 03:58N 10°21' W 075°30'0 0.0
2018-Aug-14 03:25N 10°21' W 075°30'0 0.0
2018-Aug-14 02:58N 10°21' W 075°30'0 0.0
2018-Aug-14 02:28N 10°21' W 075°30'0 0.0
2018-Aug-14 01:58N 10°21' W 075°30'0 0.0
2018-Aug-14 01:28N 10°21' W 075°30'0 0.0
2018-Aug-14 00:58N 10°21' W 075°30'0 0.0
2018-Aug-14 00:28N 10°21' W 075°30'0 0.0
2018-Aug-13 23:58N 10°21' W 075°30'0 0.0
2018-Aug-13 23:28N 10°21' W 075°30'0 0.0
2018-Aug-13 22:58N 10°21' W 075°30'0 0.0
2018-Aug-13 22:28N 10°21' W 075°30'0 0.0
2018-Aug-13 21:58N 10°21' W 075°30'0 0.0
2018-Aug-13 21:28N 10°21' W 075°30'0 0.0
2018-Aug-13 20:58N 10°21' W 075°30'0 0.0
2018-Aug-13 20:28N 10°21' W 075°30'0 0.0
2018-Aug-13 19:58N 10°21' W 075°30'0 0.0
2018-Aug-13 19:28N 10°21' W 075°30'0 0.0
2018-Aug-13 18:58N 10°21' W 075°30'0 0.0
2018-Aug-13 18:28N 10°21' W 075°30'0 0.0
2018-Aug-13 17:58N 10°21' W 075°30'0 0.0
2018-Aug-13 17:28N 10°21' W 075°30'0 0.0
2018-Aug-13 16:58N 10°21' W 075°30'0 0.0
2018-Aug-13 16:28N 10°21' W 075°30'0 0.0
2018-Aug-13 15:58N 10°21' W 075°30'0 0.0
2018-Aug-13 15:28N 10°21' W 075°30'0 0.0
2018-Aug-13 14:58N 10°21' W 075°30'0 0.0
2018-Aug-13 14:28N 10°21' W 075°30'0 0.0
2018-Aug-13 13:58N 10°21' W 075°30'0 0.0
2018-Aug-13 13:28N 10°21' W 075°30'0 0.0
2018-Aug-13 12:58N 10°21' W 075°30'0 0.0
2018-Aug-13 12:28N 10°21' W 075°30'0 0.0
2018-Aug-13 11:58N 10°21' W 075°30'0 0.0
2018-Aug-13 11:28N 10°21' W 075°30'0 0.0
2018-Aug-13 10:58N 10°21' W 075°30'0 0.0
2018-Aug-13 10:28N 10°21' W 075°30'0 0.0
2018-Aug-13 09:58N 10°21' W 075°30'0 0.0
2018-Aug-13 09:28N 10°21' W 075°30'0 0.0
2018-Aug-13 08:52N 10°21' W 075°30'0 0.0
2018-Aug-13 08:28N 10°21' W 075°30'0 0.0
2018-Aug-13 07:58N 10°21' W 075°30'0 0.0
2018-Aug-13 07:28N 10°21' W 075°30'0 0.0
2018-Aug-13 06:58N 10°21' W 075°30'0 0.0
2018-Aug-13 06:28N 10°21' W 075°30'0 0.0
2018-Aug-13 05:58N 10°21' W 075°30'0 0.0
2018-Aug-13 05:28N 10°21' W 075°30'0 0.0
2018-Aug-13 04:58N 10°21' W 075°30'0 0.0
2018-Aug-13 04:28N 10°21' W 075°30'0 0.0
2018-Aug-13 03:58N 10°21' W 075°30'0 0.0
2018-Aug-13 03:28N 10°21' W 075°30'0 0.0
2018-Aug-13 02:58N 10°21' W 075°30'0 0.0
2018-Aug-13 02:28N 10°21' W 075°30'0 0.0
2018-Aug-13 01:58N 10°21' W 075°30'0 0.0
2018-Aug-13 01:22N 10°21' W 075°30'0 0.0
2018-Aug-13 00:58N 10°21' W 075°30'0 0.0
2018-Aug-13 00:28N 10°21' W 075°30'0 0.0
2018-Aug-12 23:58N 10°21' W 075°30'0 0.0
2018-Aug-12 23:28N 10°21' W 075°30'0 0.0
2018-Aug-12 22:58N 10°21' W 075°30'0 0.0
2018-Aug-12 22:28N 10°21' W 075°30'0 0.0
2018-Aug-12 21:58N 10°21' W 075°30'0 0.0
2018-Aug-12 21:28N 10°21' W 075°30'0 0.0
2018-Aug-12 20:58N 10°21' W 075°30'0 0.0
2018-Aug-12 20:28N 10°21' W 075°30'0 0.0
2018-Aug-12 19:58N 10°21' W 075°30'0 0.0
2018-Aug-12 19:28N 10°21' W 075°30'0 0.0
2018-Aug-12 18:58N 10°21' W 075°30'0 0.0
2018-Aug-12 18:28N 10°21' W 075°30'0 0.0
2018-Aug-12 17:58N 10°21' W 075°30'0 0.0
2018-Aug-12 17:28N 10°21' W 075°30'0 0.0
2018-Aug-12 16:58N 10°21' W 075°30'0 0.0
2018-Aug-12 16:28N 10°21' W 075°30'0 0.0
2018-Aug-12 15:58N 10°21' W 075°30'0 0.0
2018-Aug-12 15:28N 10°21' W 075°30'0 0.0
2018-Aug-12 14:58N 10°21' W 075°30'0 0.0
2018-Aug-12 14:28N 10°21' W 075°30'0 0.0
2018-Aug-12 13:58N 10°21' W 075°30'0 0.0
2018-Aug-12 13:28N 10°21' W 075°30'0 0.0
2018-Aug-12 12:58N 10°21' W 075°30'0 0.0
2018-Aug-12 12:28N 10°21' W 075°30'0 0.0
2018-Aug-12 11:58N 10°21' W 075°30'0 0.0
2018-Aug-12 11:28N 10°21' W 075°30'0 0.0
2018-Aug-12 10:58N 10°21' W 075°30'0 0.0
2018-Aug-12 10:28N 10°21' W 075°30'0 0.0
2018-Aug-12 09:58N 10°21' W 075°30'0 0.0
2018-Aug-12 09:28N 10°21' W 075°30'0 0.0
2018-Aug-12 08:58N 10°21' W 075°30'0 0.0
2018-Aug-12 08:28N 10°21' W 075°30'0 0.0
2018-Aug-12 07:58N 10°21' W 075°30'0 0.0
2018-Aug-12 07:28N 10°21' W 075°30'0 0.0
2018-Aug-12 06:58N 10°21' W 075°30'0 0.0
2018-Aug-12 06:25N 10°21' W 075°30'0 0.0
2018-Aug-12 05:58N 10°21' W 075°30'0 0.0
2018-Aug-12 05:28N 10°21' W 075°30'0 0.0
2018-Aug-12 04:58N 10°21' W 075°30'0 0.0
2018-Aug-12 04:28N 10°21' W 075°30'0 0.0
2018-Aug-12 03:58N 10°21' W 075°30'0 0.0
2018-Aug-12 03:28N 10°21' W 075°30'0 0.0
2018-Aug-12 02:58N 10°21' W 075°30'0 0.0
2018-Aug-12 02:25N 10°21' W 075°30'0 0.0
2018-Aug-12 01:58N 10°21' W 075°30'0 0.0
2018-Aug-12 01:28N 10°21' W 075°30'0 0.0
2018-Aug-12 00:58N 10°21' W 075°30'0 0.0
2018-Aug-12 00:28N 10°21' W 075°30'0 0.0
2018-Aug-11 23:58N 10°21' W 075°30'0 0.0
2018-Aug-11 23:28N 10°21' W 075°30'0 0.1
2018-Aug-11 23:00N 10°21' W 075°30'2 4.7
2018-Aug-11 22:30N 10°20' W 075°33'510.0
2018-Aug-11 22:00N 10°19' W 075°38'5 9.8
2018-Aug-11 21:28N 10°22' W 075°42'613.2
2018-Aug-11 21:00N 10°28' W 075°41'1213.9
2018-Aug-11 20:07N 10°39' W 075°36'  
2018-Aug-06 22:39N 32°44' W 079°50'214.5
2018-Aug-06 22:30N 32°45' W 079°52'4 8.0
2018-Aug-06 22:00N 32°48' W 079°56'0 0.0
2018-Aug-06 21:30N 32°48' W 079°56'0 0.0
2018-Aug-06 21:00N 32°48' W 079°56'0 0.0
2018-Aug-06 20:30N 32°48' W 079°56'0 0.0
2018-Aug-06 20:00N 32°48' W 079°56'0 0.0
2018-Aug-06 19:27N 32°48' W 079°56'0 0.0
2018-Aug-06 19:00N 32°48' W 079°56'0 0.0
2018-Aug-06 18:30N 32°48' W 079°56'0 0.0
2018-Aug-06 18:00N 32°48' W 079°56'0 0.0
2018-Aug-06 17:30N 32°48' W 079°56'0 0.0
2018-Aug-06 17:00N 32°48' W 079°56'0 0.0
2018-Aug-06 16:30N 32°48' W 079°56'0 0.0
2018-Aug-06 16:00N 32°48' W 079°56'0 0.0
2018-Aug-06 15:30N 32°48' W 079°56'0 0.0
2018-Aug-06 15:00N 32°48' W 079°56'0 0.0
2018-Aug-06 14:30N 32°48' W 079°56'0 0.0
2018-Aug-06 14:00N 32°48' W 079°56'0 0.0
2018-Aug-06 13:30N 32°48' W 079°56'0 0.0
2018-Aug-06 13:00N 32°48' W 079°56'0 0.0
2018-Aug-06 12:30N 32°48' W 079°56'0 0.0
2018-Aug-06 12:00N 32°48' W 079°56'0 0.0
2018-Aug-06 11:30N 32°48' W 079°56'0 0.0
2018-Aug-06 11:00N 32°48' W 079°56'0 0.0
2018-Aug-06 10:30N 32°48' W 079°56'0 0.0
2018-Aug-06 10:00N 32°48' W 079°56'0 0.0
2018-Aug-06 09:30N 32°48' W 079°56'0 0.0
2018-Aug-06 09:00N 32°48' W 079°56'0 0.0
2018-Aug-06 08:30N 32°48' W 079°56'0 0.0
2018-Aug-06 07:57N 32°48' W 079°56'0 0.0
2018-Aug-06 07:30N 32°48' W 079°56'0 0.0
2018-Aug-06 07:00N 32°48' W 079°56'0 0.0
2018-Aug-06 06:30N 32°48' W 079°56'0 0.0
2018-Aug-06 06:00N 32°48' W 079°56'0 0.0
2018-Aug-06 05:30N 32°48' W 079°56'0 0.0
2018-Aug-06 05:00N 32°48' W 079°56'0 0.0
2018-Aug-06 04:30N 32°48' W 079°56'0 0.0
2018-Aug-06 04:00N 32°48' W 079°56'  

Dump ship's entire track history